Time;durP1;ratioP1;P1;durP2;ratioP2;P2;SDS_P1;SDS_P2;PMS_P1;PMS_P2;Temp;Humidity;BMP_temperature;BMP_pressure;BME280_temperature;BME280_humidity;BME280_pressure;Samples;Min_cycle;Max_cycle;Signal;HPM_P1;HPM_P2
2022/12/02 00:08:44;;;;;;;15.90;10.80;;;;;;;3.09;62.33;99944.83;227687;1238;137840;-66
2022/12/02 00:15:15;;;;;;;;;;;;;;;;;;;;;
2022/12/02 00:54:12;;;;;;;13.90;8.90;;;;;;;2.97;62.76;99931.90;221263;1254;634743;-66
2022/12/02 01:00:25;;;;;;;15.80;9.40;;;;;;;2.93;62.63;99927.77;222776;1243;137885;-66
2022/12/02 01:05:43;;;;;;;15.60;9.80;;;;;;;2.89;62.88;99926.77;223307;1240;139217;-66
2022/12/02 01:11:08;;;;;;;14.30;8.90;;;;;;;2.87;62.97;99925.23;223337;1243;137322;-65
2022/12/02 01:23:39;;;;;;;;;;;;;;;;;;;;;
2022/12/02 01:40:32;;;;;;;17.10;10.00;;;;;;;2.78;63.11;99904.89;221078;1252;656964;-65
2022/12/02 01:46:20;;;;;;;13.60;9.70;;;;;;;2.76;63.37;99903.67;223095;1241;137473;-65
2022/12/02 01:56:49;;;;;;;16.10;10.40;;;;;;;2.86;63.21;99900.88;222003;1249;658059;-64
2022/12/02 02:09:50;;;;;;;19.90;11.80;;;;;;;2.93;63.59;99893.58;223446;1246;138031;-64
2022/12/02 02:16:20;;;;;;;18.30;11.50;;;;;;;2.93;63.45;99892.55;223290;1240;137967;-64
2022/12/02 02:22:10;;;;;;;16.40;10.70;;;;;;;2.95;63.55;99895.13;223174;1233;138609;-64
2022/12/02 02:28:37;;;;;;;;;;;;;;;;;;;;;
2022/12/02 02:33:54;;;;;;;17.20;10.90;;;;;;;2.87;64.16;99890.18;223576;1240;138008;-64
2022/12/02 02:39:04;;;;;;;19.30;11.40;;;;;;;2.84;64.04;99890.05;222877;1236;138355;-65
2022/12/02 02:44:48;;;;;;;15.50;10.30;;;;;;;2.82;64.15;99887.48;223071;1244;137378;-64
2022/12/02 02:51:03;;;;;;;15.50;10.40;;;;;;;2.79;64.35;99885.76;222913;1242;138440;-64
2022/12/02 02:57:08;;;;;;;16.90;11.10;;;;;;;2.77;64.25;99879.66;223243;1240;137278;-65
2022/12/02 03:02:13;;;;;;;;;;;;;;;2.75;64.54;99876.89;223115;1232;138648;-64
2022/12/02 03:08:08;;;;;;;16.40;10.60;;;;;;;2.73;64.78;99875.88;223071;1240;123803;-63
2022/12/02 03:19:55;;;;;;;14.90;9.60;;;;;;;2.65;65.29;99869.88;223183;1241;138053;-63
2022/12/02 03:26:08;;;;;;;15.70;9.90;;;;;;;2.66;65.15;99865.84;223852;1243;137090;-62
2022/12/02 03:32:12;;;;;;;;;;;;;;;;;;;;;
2022/12/02 03:38:09;;;;;;;13.60;9.30;;;;;;;2.65;65.30;99865.50;223231;1240;137331;-63
2022/12/02 03:43:34;;;;;;;15.30;9.10;;;;;;;2.64;65.48;99861.84;223269;1237;138219;-63
2022/12/02 03:49:16;;;;;;;15.10;9.90;;;;;;;2.63;65.49;99859.76;223467;1240;137694;-62
2022/12/02 03:57:33;;;;;;;14.90;9.20;;;;;;;2.71;65.88;99854.19;221385;1253;635896;-64
2022/12/02 04:03:24;;;;;;;14.00;9.30;;;;;;;2.73;65.68;99853.28;223457;1240;137453;-64
2022/12/02 04:09:18;;;;;;;14.90;9.30;;;;;;;2.75;65.61;99851.66;222287;1246;137156;-64
2022/12/02 04:23:05;;;;;;;15.80;9.70;;;;;;;2.73;65.92;99853.09;222361;1241;137797;-62
2022/12/02 04:32:12;;;;;;;17.50;10.30;;;;;;;2.69;66.13;99855.81;221209;1250;635166;-62
2022/12/02 04:38:16;;;;;;;16.60;10.50;;;;;;;2.66;66.03;99857.95;223488;1242;137352;-62
2022/12/02 05:19:07;;;;;;;14.40;10.40;;;;;;;2.61;66.19;99855.93;221497;1243;681136;-66
2022/12/02 05:25:18;;;;;;;15.20;9.80;;;;;;;2.69;65.78;99861.39;222149;1242;136996;-66
2022/12/02 05:31:05;;;;;;;13.00;8.30;;;;;;;2.63;65.90;99864.67;222097;1245;137230;-66
2022/12/02 05:36:58;;;;;;;15.00;9.40;;;;;;;2.61;66.08;99863.11;221454;1246;137948;-66
2022/12/02 05:57:44;;;;;;;12.30;7.90;;;;;;;2.47;66.52;99858.77;222551;1233;137985;-66
2022/12/02 06:04:07;;;;;;;44.00;29.30;;;;;;;2.50;67.44;99861.00;226303;1233;137372;-66
2022/12/02 06:09:35;;;;;;;11.80;8.30;;;;;;;2.62;66.86;99862.91;225333;1249;138270;-66
2022/12/02 06:14:50;;;;;;;9.70;7.10;;;;;;;2.60;66.72;99866.98;226445;1240;138195;-65
2022/12/02 06:20:28;;;;;;;14.30;8.00;;;;;;;2.61;66.45;99866.61;225346;1247;137741;-65
2022/12/02 06:25:35;;;;;;;255.30;171.70;;;;;;;2.63;66.33;99870.27;225256;1240;138255;-64
2022/12/02 06:30:42;;;;;;;33.90;19.10;;;;;;;2.72;66.41;99870.46;225250;1255;138299;-62
2022/12/02 06:35:55;;;;;;;16.50;11.40;;;;;;;2.74;65.72;99872.00;226351;1230;138104;-62
2022/12/02 06:47:53;;;;;;;15.70;10.20;;;;;;;2.47;65.70;99882.24;227125;1236;137780;-67
2022/12/02 06:53:46;;;;;;;31.20;20.90;;;;;;;2.43;66.62;99886.50;227430;1227;138268;-67
2022/12/02 06:59:11;;;;;;;17.30;11.40;;;;;;;2.45;65.79;99888.41;226130;1238;137829;-66
2022/12/02 07:04:27;;;;;;;14.80;10.20;;;;;;;2.39;65.38;99891.13;226382;1239;139114;-70
2022/12/02 07:09:38;;;;;;;16.70;10.80;;;;;;;2.32;65.28;99896.14;226430;1234;138742;-69
2022/12/02 07:14:48;;;;;;;13.30;9.40;;;;;;;2.28;65.43;99898.30;227117;1241;138308;-69
2022/12/02 07:20:04;;;;;;;16.30;11.60;;;;;;;2.26;65.19;99896.56;227062;1235;138071;-73
2022/12/02 07:25:07;;;;;;;13.30;9.30;;;;;;;2.26;65.11;99894.46;227260;1244;138820;-71
2022/12/02 07:30:39;;;;;;;16.90;10.10;;;;;;;2.25;65.10;99896.42;227135;1241;137651;-71
2022/12/02 07:35:42;;;;;;;13.30;9.80;;;;;;;2.23;65.22;99894.88;227004;1242;138202;-70
2022/12/02 07:40:45;;;;;;;14.40;9.60;;;;;;;2.21;65.28;99897.88;227868;1234;138020;-70
2022/12/02 07:45:49;;;;;;;18.80;12.60;;;;;;;2.25;65.15;99896.23;228014;1233;138184;-69
2022/12/02 07:50:52;;;;;;;11.90;8.40;;;;;;;2.36;64.82;99893.80;226850;1241;138490;-69
2022/12/02 07:55:57;;;;;;;106.80;55.90;;;;;;;2.50;65.48;99889.73;226606;1234;137749;-69
2022/12/02 08:01:00;;;;;;;14.00;9.30;;;;;;;2.56;64.68;99894.19;228073;1226;138248;-70
2022/12/02 08:06:04;;;;;;;15.80;10.20;;;;;;;2.53;64.45;99894.58;227133;1234;138018;-70
2022/12/02 08:11:07;;;;;;;13.10;9.00;;;;;;;2.51;64.48;99897.60;226704;1242;139128;-70
2022/12/02 08:16:10;;;;;;;18.50;9.60;;;;;;;2.47;64.21;99894.51;227001;1242;137761;-70
2022/12/02 08:21:13;;;;;;;15.20;9.80;;;;;;;2.47;64.51;99896.08;227158;1234;137673;-70
2022/12/02 08:26:16;;;;;;;12.90;9.30;;;;;;;2.45;64.35;99899.09;227870;1231;138115;-67
2022/12/02 08:31:19;;;;;;;81.00;48.10;;;;;;;2.47;65.19;99902.39;227773;1229;137606;-65
2022/12/02 08:36:22;;;;;;;16.50;11.10;;;;;;;2.54;64.79;99907.54;226815;1249;138212;-66
2022/12/02 08:41:25;;;;;;;15.60;10.00;;;;;;;2.51;64.12;99913.71;227043;1237;138129;-68
2022/12/02 08:46:29;;;;;;;290.40;174.30;;;;;;;2.46;64.85;99913.62;227068;1245;137797;-68
2022/12/02 08:51:33;;;;;;;24.30;15.50;;;;;;;2.53;65.36;99913.50;227116;1233;138458;-69
2022/12/02 08:56:36;;;;;;;16.10;10.00;;;;;;;2.53;64.47;99913.68;227138;1247;137880;-69
2022/12/02 09:01:39;;;;;;;12.40;9.40;;;;;;;2.47;64.50;99912.89;227102;1238;138916;-68
2022/12/02 09:06:42;;;;;;;13.40;9.30;;;;;;;2.44;64.57;99911.20;227059;1244;137617;-68
2022/12/02 09:11:45;;;;;;;15.30;10.30;;;;;;;2.42;64.51;99906.67;227044;1234;137832;-66
2022/12/02 09:16:49;;;;;;;15.70;10.40;;;;;;;2.39;64.89;99902.69;226996;1249;137907;-67
2022/12/02 09:21:52;;;;;;;18.30;12.00;;;;;;;2.36;64.84;99901.66;227075;1234;138364;-67
2022/12/02 09:26:55;;;;;;;17.30;10.90;;;;;;;2.37;65.04;99901.48;227038;1241;137893;-65
2022/12/02 09:31:58;;;;;;;18.50;10.90;;;;;;;2.42;65.19;99904.21;227047;1240;138486;-66
2022/12/02 09:37:01;;;;;;;16.70;11.00;;;;;;;2.47;65.12;99898.89;227890;1231;138922;-67
2022/12/02 09:42:07;;;;;;;18.70;12.00;;;;;;;2.55;64.74;99904.20;227871;1234;138230;-67
2022/12/02 09:47:11;;;;;;;19.60;11.40;;;;;;;2.59;64.91;99897.98;226934;1249;138357;-68
2022/12/02 09:52:24;;;;;;;17.30;11.20;;;;;;;2.62;64.72;99897.76;227833;1226;138070;-68
2022/12/02 09:57:31;;;;;;;23.20;14.20;;;;;;;2.56;64.69;99898.39;226996;1234;139028;-68
2022/12/02 10:02:48;;;;;;;19.90;11.60;;;;;;;2.54;65.08;99897.55;226826;1231;138907;-68
2022/12/02 10:07:54;;;;;;;270.40;155.10;;;;;;;2.53;65.43;99890.55;226952;1244;138115;-68
2022/12/02 10:12:57;;;;;;;29.50;19.40;;;;;;;2.69;66.66;99888.90;226932;1240;139040;-67
2022/12/02 10:18:23;;;;;;;18.70;12.60;;;;;;;2.68;64.96;99885.60;227001;1249;137980;-67
2022/12/02 10:23:27;;;;;;;22.40;12.50;;;;;;;2.55;64.89;99883.69;226912;1238;138738;-66
2022/12/02 10:28:33;;;;;;;18.80;10.70;;;;;;;2.48;65.00;99882.76;227878;1234;138399;-69
2022/12/02 10:33:39;;;;;;;17.90;11.90;;;;;;;2.41;65.20;99874.29;227077;1248;137498;-69
2022/12/02 10:38:44;;;;;;;16.10;11.50;;;;;;;2.37;65.04;99873.82;227058;1241;138087;-69
2022/12/02 10:44:03;;;;;;;16.40;11.60;;;;;;;2.33;65.20;99868.45;226601;1243;138009;-68
2022/12/02 10:49:35;;;;;;;191.30;103.10;;;;;;;2.37;65.84;99867.51;226628;1243;139285;-67
2022/12/02 10:54:44;;;;;;;156.00;85.00;;;;;;;2.45;65.86;99862.48;226859;1240;138651;-65
2022/12/02 10:59:48;;;;;;;22.40;13.00;;;;;;;2.49;65.50;99865.23;227011;1241;138957;-63
2022/12/02 11:05:34;;;;;;;18.50;11.30;;;;;;;2.48;65.18;99864.71;226874;1240;138992;-64
2022/12/02 11:10:46;;;;;;;21.10;14.00;;;;;;;2.56;65.06;99865.29;227811;1230;138610;-63
2022/12/02 11:15:57;;;;;;;20.70;12.80;;;;;;;2.65;65.83;99857.44;226916;1240;138143;-65
2022/12/02 11:21:37;;;;;;;21.00;14.10;;;;;;;2.68;64.67;99855.99;226971;1234;137810;-65
2022/12/02 11:34:03;;;;;;;;;;;;;;;;;;;;;
2022/12/02 11:40:26;;;;;;;;;;;;;;;;;;;;;
2022/12/02 11:45:58;;;;;;;17.20;12.40;;;;;;;2.46;64.76;99856.88;225958;1237;138096;-65
2022/12/02 11:58:43;;;;;;;18.50;12.40;;;;;;;2.38;64.79;99848.77;227173;1235;137835;-66
2022/12/02 12:05:08;;;;;;;18.50;12.10;;;;;;;2.32;64.85;99846.94;226823;1238;137865;-65
2022/12/02 12:10:48;;;;;;;17.90;12.40;;;;;;;2.27;65.04;99846.48;226553;1242;137969;-65
2022/12/02 12:16:48;;;;;;;17.60;11.50;;;;;;;2.26;65.03;99841.77;226089;1248;138476;-65
2022/12/02 12:23:00;;;;;;;23.10;13.00;;;;;;;2.26;65.07;99840.19;226495;1240;137606;-65
2022/12/02 12:28:59;;;;;;;25.60;15.80;;;;;;;2.26;65.05;99840.91;226659;1234;138503;-66
2022/12/02 12:35:45;;;;;;;20.30;13.30;;;;;;;2.26;65.00;99839.31;227539;1237;138355;-66
2022/12/02 12:42:06;;;;;;;18.90;11.90;;;;;;;2.25;64.69;99835.50;226416;1230;137905;-65
2022/12/02 12:53:11;;;;;;;19.90;12.10;;;;;;;2.20;64.71;99839.41;227561;1243;137775;-67
2022/12/02 13:19:06;;;;;;;21.30;12.30;;;;;;;2.66;64.03;99837.80;221173;1247;636165;-64
2022/12/02 13:25:10;;;;;;;20.40;12.50;;;;;;;2.57;63.67;99836.90;223741;1237;94111;-65
2022/12/02 13:31:12;;;;;;;18.00;12.20;;;;;;;2.48;64.09;99844.06;222946;1240;137947;-66
2022/12/02 13:37:29;;;;;;;14.30;9.00;;;;;;;2.40;64.26;99843.65;222844;1240;137796;-65
2022/12/02 13:51:56;;;;;;;22.50;13.40;;;;;;;2.44;64.37;99836.41;221393;1250;635538;-65
2022/12/02 13:58:18;;;;;;;20.50;13.70;;;;;;;2.31;64.43;99837.48;220962;1252;137194;-67
2022/12/02 14:15:02;;;;;;;24.00;13.90;;;;;;;2.12;64.77;99846.89;223065;1254;635992;-65
2022/12/02 14:20:09;;;;;;;23.10;14.10;;;;;;;2.10;64.78;99847.79;225800;1248;137476;-65
2022/12/02 14:25:45;;;;;;;22.80;13.80;;;;;;;2.08;64.81;99853.60;225624;1240;137759;-66
2022/12/02 14:39:46;;;;;;;22.10;12.60;;;;;;;2.06;64.88;99852.92;221311;1253;637149;-66
2022/12/02 14:51:38;;;;;;;24.00;13.70;;;;;;;2.20;64.53;99855.17;225302;1239;137620;-65
2022/12/02 14:56:59;;;;;;;22.00;13.90;;;;;;;2.21;64.70;99852.17;226229;1240;138794;-65
2022/12/02 15:02:13;;;;;;;25.70;13.60;;;;;;;2.21;64.59;99851.65;225179;1244;137774;-66
2022/12/02 15:07:20;;;;;;;26.40;15.40;;;;;;;2.23;64.67;99852.50;225168;1248;138024;-65
2022/12/02 15:13:01;;;;;;;23.40;13.20;;;;;;;2.22;64.53;99851.45;225153;1244;137717;-65
2022/12/02 15:18:56;;;;;;;24.90;14.80;;;;;;;2.22;64.67;99851.99;225184;1248;137997;-65
2022/12/02 15:24:21;;;;;;;23.50;13.90;;;;;;;2.18;64.66;99850.30;225239;1244;137796;-66
2022/12/02 15:29:30;;;;;;;27.50;15.60;;;;;;;2.11;64.75;99851.61;225177;1244;139652;-63
2022/12/02 15:35:04;;;;;;;25.20;14.70;;;;;;;2.09;64.99;99858.83;225114;1244;137568;-65
2022/12/02 15:40:21;;;;;;;25.80;15.30;;;;;;;2.10;65.00;99862.32;225084;1245;138274;-64
2022/12/02 15:45:42;;;;;;;49.10;27.20;;;;;;;2.12;65.84;99867.02;225159;1244;137780;-65
2022/12/02 15:51:16;;;;;;;25.90;16.20;;;;;;;2.17;65.14;99868.00;225159;1244;138514;-64
2022/12/02 15:56:24;;;;;;;27.00;16.90;;;;;;;2.11;65.14;99872.27;226203;1233;139984;-66
2022/12/02 16:01:45;;;;;;;27.70;16.20;;;;;;;2.12;65.31;99869.46;225057;1245;138327;-64
2022/12/02 16:07:36;;;;;;;;;;;;;;;2.07;65.32;99868.48;225121;1256;137714;-64
2022/12/02 16:12:46;;;;;;;30.60;17.20;;;;;;;2.09;65.30;99871.08;226706;1241;124962;-65
2022/12/02 16:17:55;;;;;;;33.00;18.20;;;;;;;2.17;65.54;99865.73;227144;1238;137519;-66
2022/12/02 16:23:16;;;;;;;34.20;19.10;;;;;;;2.25;65.25;99867.17;227697;1240;138334;-66
2022/12/02 16:28:50;;;;;;;32.70;19.10;;;;;;;2.31;65.13;99869.54;226462;1237;138649;-65
2022/12/02 16:34:13;;;;;;;32.90;19.50;;;;;;;2.23;65.09;99870.00;227595;1232;139531;-65
2022/12/02 16:39:40;;;;;;;32.20;19.40;;;;;;;2.20;65.41;99868.48;227820;1234;138291;-65
2022/12/02 16:44:55;;;;;;;35.70;19.50;;;;;;;2.23;65.29;99867.73;228094;1234;137461;-65
2022/12/02 16:50:29;;;;;;;38.70;22.10;;;;;;;2.20;65.27;99872.16;226806;1237;138740;-64
2022/12/02 16:56:01;;;;;;;44.00;21.80;;;;;;;2.20;65.51;99869.88;226675;1251;138827;-64
2022/12/02 17:01:08;;;;;;;44.10;22.00;;;;;;;2.19;65.57;99866.91;226231;1244;138022;-64
2022/12/02 17:07:02;;;;;;;40.80;21.00;;;;;;;2.20;65.69;99865.68;226619;1235;138291;-64
2022/12/02 17:12:16;;;;;;;42.80;23.10;;;;;;;2.19;65.59;99873.91;226331;1244;137591;-64
2022/12/02 17:17:55;;;;;;;43.00;23.20;;;;;;;2.16;65.63;99875.70;226543;1235;137226;-64
2022/12/02 17:23:23;;;;;;;42.70;22.90;;;;;;;2.14;65.86;99871.55;225992;1244;138284;-64
2022/12/02 17:28:39;;;;;;;38.40;22.20;;;;;;;2.16;65.76;99875.17;226234;1237;138064;-66
2022/12/02 17:33:41;;;;;;;39.40;21.90;;;;;;;2.18;65.78;99878.47;226291;1241;138536;-66
2022/12/02 17:38:51;;;;;;;37.80;22.30;;;;;;;2.35;66.02;99880.34;226351;1234;138483;-66
2022/12/02 17:43:59;;;;;;;44.40;24.10;;;;;;;2.45;66.14;99882.97;226275;1238;138986;-67
2022/12/02 17:49:02;;;;;;;40.90;23.70;;;;;;;2.53;65.40;99881.62;226292;1244;138153;-66
2022/12/02 17:54:05;;;;;;;40.20;24.20;;;;;;;2.57;65.00;99889.09;226390;1238;138174;-65
2022/12/02 17:59:08;;;;;;;41.60;22.80;;;;;;;2.58;64.78;99892.75;226285;1244;138380;-66
2022/12/02 18:04:11;;;;;;;42.00;22.70;;;;;;;2.55;64.55;99894.73;226345;1242;138356;-66
2022/12/02 18:09:14;;;;;;;42.50;23.70;;;;;;;2.53;64.69;99898.79;226142;1241;137970;-65
2022/12/02 18:14:35;;;;;;;39.70;22.10;;;;;;;2.49;64.42;99902.18;226168;1231;138749;-64
2022/12/02 18:21:32;;;;;;;;;;;;;;;;;;;;;
2022/12/02 18:35:59;;;;;;;39.00;22.30;;;;;;;2.45;64.82;99899.63;226452;1229;139238;-64
2022/12/02 18:50:26;;;;;;;53.40;27.60;;;;;;;2.41;65.58;99903.52;224745;1239;137918;-65
2022/12/02 18:56:53;;;;;;;41.70;23.80;;;;;;;2.42;65.33;99898.78;224839;1242;137582;-63
2022/12/02 19:04:11;;;;;;;47.20;23.10;;;;;;;2.39;65.33;99899.89;225162;1245;137624;-65
2022/12/02 19:17:09;;;;;;;46.60;25.40;;;;;;;2.30;65.41;99895.98;225078;1241;138084;-67
2022/12/02 19:22:12;;;;;;;48.50;24.70;;;;;;;2.30;65.69;99892.32;226428;1250;138204;-65
2022/12/02 19:27:15;;;;;;;123.00;71.30;;;;;;;2.34;66.32;99888.92;226289;1243;139076;-66
2022/12/02 19:32:39;;;;;;;86.70;44.30;;;;;;;2.59;67.85;99886.95;226482;1234;139998;-65
2022/12/02 19:37:42;;;;;;;48.60;26.80;;;;;;;2.79;66.04;99884.54;226396;1251;140480;-67
2022/12/02 19:49:53;;;;;;;61.10;30.00;;;;;;;2.77;65.11;99895.08;226055;1236;138814;-64
2022/12/02 19:54:56;;;;;;;59.80;29.70;;;;;;;2.73;64.94;99897.61;226634;1234;138729;-66
2022/12/02 20:00:00;;;;;;;60.60;30.00;;;;;;;2.68;65.00;99894.71;226726;1237;138142;-68
2022/12/02 20:05:16;;;;;;;200.40;114.40;;;;;;;2.64;65.72;99897.92;227673;1234;138490;-67
2022/12/02 20:10:20;;;;;;;70.80;37.50;;;;;;;2.85;67.28;99896.70;226865;1234;138433;-68
2022/12/02 20:15:23;;;;;;;52.20;27.50;;;;;;;2.91;65.40;99892.20;227775;1231;137899;-65
2022/12/02 20:20:38;;;;;;;57.00;27.90;;;;;;;2.78;65.28;99896.98;226686;1241;138761;-66
2022/12/02 20:32:03;;;;;;;59.00;26.90;;;;;;;2.58;65.47;99886.09;226862;1234;139778;-65
2022/12/02 20:37:30;;;;;;;147.60;81.30;;;;;;;2.57;66.46;99879.30;226990;1234;137958;-67
2022/12/02 20:42:38;;;;;;;58.50;31.90;;;;;;;2.73;66.33;99878.16;227702;1227;138628;-65
2022/12/02 20:47:48;;;;;;;55.40;28.60;;;;;;;2.76;65.69;99872.84;226581;1248;137961;-64
2022/12/02 20:53:34;;;;;;;55.40;28.60;;;;;;;2.70;65.87;99868.92;227796;1227;138805;-65
2022/12/02 20:58:48;;;;;;;134.80;75.10;;;;;;;2.66;66.09;99863.21;226676;1241;138850;-65
2022/12/02 21:03:52;;;;;;;57.10;29.50;;;;;;;2.74;66.27;99862.20;226725;1237;138222;-67
2022/12/02 21:08:55;;;;;;;51.80;27.80;;;;;;;2.71;65.90;99863.48;226887;1237;138465;-64
2022/12/02 21:14:02;;;;;;;64.60;31.10;;;;;;;2.74;65.89;99861.85;227725;1226;138959;-66
2022/12/02 21:19:05;;;;;;;62.80;30.50;;;;;;;2.75;65.84;99864.45;227802;1233;138391;-68
2022/12/02 21:24:08;;;;;;;59.20;29.20;;;;;;;2.75;65.99;99864.29;226759;1238;139364;-68
2022/12/02 21:29:11;;;;;;;59.00;28.40;;;;;;;2.72;65.86;99870.29;227711;1233;138014;-67
2022/12/02 21:34:14;;;;;;;57.20;28.50;;;;;;;2.68;66.10;99875.79;227766;1227;139216;-67
2022/12/02 21:39:17;;;;;;;55.50;27.30;;;;;;;2.65;65.96;99877.23;226334;1251;138283;-67
2022/12/02 21:44:21;;;;;;;58.90;28.30;;;;;;;2.63;66.29;99878.14;226643;1234;138326;-66
2022/12/02 21:49:24;;;;;;;59.60;27.20;;;;;;;2.60;66.33;99873.63;226917;1241;138275;-68
2022/12/02 21:54:27;;;;;;;51.70;26.60;;;;;;;2.58;66.63;99876.65;226876;1234;138503;-67
2022/12/02 21:59:30;;;;;;;54.90;26.90;;;;;;;2.58;66.62;99877.34;227768;1235;137647;-66
2022/12/02 22:04:33;;;;;;;57.40;27.20;;;;;;;2.57;66.65;99878.05;226698;1237;138279;-68
2022/12/02 22:09:37;;;;;;;60.90;29.10;;;;;;;2.53;66.79;99877.26;226818;1234;138169;-65
2022/12/02 22:14:41;;;;;;;64.20;27.90;;;;;;;2.52;66.80;99875.69;226722;1234;138607;-66
2022/12/02 22:19:44;;;;;;;69.60;29.70;;;;;;;2.52;66.84;99876.57;226797;1234;138435;-66
2022/12/02 22:24:47;;;;;;;64.50;31.00;;;;;;;2.52;67.25;99873.24;226753;1240;139099;-66
2022/12/02 22:29:50;;;;;;;68.30;31.40;;;;;;;2.52;67.22;99869.02;226713;1249;138861;-65
2022/12/02 22:34:54;;;;;;;68.30;30.20;;;;;;;2.63;67.21;99866.05;226726;1241;137772;-66
2022/12/02 22:39:58;;;;;;;69.60;32.80;;;;;;;2.73;67.19;99868.70;226759;1245;138311;-66
2022/12/02 22:45:02;;;;;;;77.00;32.10;;;;;;;2.75;66.97;99863.58;227664;1227;138429;-68
2022/12/02 22:50:06;;;;;;;72.00;32.20;;;;;;;2.78;67.09;99864.92;227605;1233;138424;-66
2022/12/02 22:55:09;;;;;;;71.50;32.70;;;;;;;2.77;67.04;99868.27;227567;1231;138273;-66
2022/12/02 23:00:15;;;;;;;70.40;30.80;;;;;;;2.73;67.27;99869.75;226799;1241;138630;-66
2022/12/02 23:05:18;;;;;;;74.90;32.10;;;;;;;2.72;67.26;99869.23;226755;1241;137846;-66
2022/12/02 23:10:42;;;;;;;71.40;29.90;;;;;;;2.71;67.35;99873.80;226885;1226;138650;-64
2022/12/02 23:15:45;;;;;;;69.90;31.00;;;;;;;2.72;67.55;99870.81;226804;1249;138302;-65
2022/12/02 23:20:48;;;;;;;65.40;30.20;;;;;;;2.71;67.57;99870.14;226472;1243;138809;-65
2022/12/02 23:25:51;;;;;;;73.00;30.90;;;;;;;2.68;67.46;99866.86;226430;1234;138442;-65
2022/12/02 23:30:54;;;;;;;71.80;31.50;;;;;;;2.66;67.84;99870.92;226640;1240;137585;-65
2022/12/02 23:35:57;;;;;;;75.10;30.70;;;;;;;2.65;68.08;99878.64;226525;1248;138551;-65
2022/12/02 23:41:01;;;;;;;72.90;31.40;;;;;;;2.64;68.15;99877.61;227740;1231;138105;-66
2022/12/02 23:46:04;;;;;;;70.50;30.00;;;;;;;2.65;68.02;99871.27;226793;1234;138536;-64
2022/12/02 23:51:07;;;;;;;71.50;31.30;;;;;;;2.73;68.03;99873.95;226473;1244;138579;-65
2022/12/02 23:56:10;;;;;;;68.40;31.40;;;;;;;2.83;67.85;99864.84;226569;1249;138520;-65
